Time;durP1;ratioP1;P1;durP2;ratioP2;P2;SDS_P1;SDS_P2;PMS_P1;PMS_P2;Temp;Humidity;BMP_temperature;BMP_pressure;BME280_temperature;BME280_humidity;BME280_pressure;Samples;Min_cycle;Max_cycle;Signal;HPM_P1;HPM_P2
2023/07/23 00:00:36;;;;;;;6.68;3.28;;;23.60;79.10;;;;;;5076520;28;20034;-72
2023/07/23 00:03:02;;;;;;;6.82;3.58;;;23.60;78.70;;;;;;5076981;28;20029;-72
2023/07/23 00:05:28;;;;;;;6.65;3.38;;;23.60;78.30;;;;;;5076662;28;20028;-72
2023/07/23 00:07:57;;;;;;;4.45;3.30;;;23.60;78.30;;;;;;5076458;28;20090;-72
2023/07/23 00:10:24;;;;;;;7.78;3.67;;;23.60;78.00;;;;;;5076576;28;20094;-72
2023/07/23 00:12:50;;;;;;;8.27;3.67;;;23.60;78.30;;;;;;5076333;28;20432;-72
2023/07/23 00:15:16;;;;;;;5.03;3.20;;;23.60;78.20;;;;;;5076604;28;20029;-72
2023/07/23 00:17:42;;;;;;;7.15;3.28;;;23.50;77.90;;;;;;5076182;28;20097;-73
2023/07/23 00:20:09;;;;;;;4.63;2.95;;;23.50;77.70;;;;;;5076302;28;20033;-73
2023/07/23 00:22:36;;;;;;;5.90;3.20;;;23.50;77.60;;;;;;5058283;28;20024;-72
2023/07/23 00:25:02;;;;;;;5.38;3.72;;;23.50;77.70;;;;;;5076361;28;20500;-72
2023/07/23 00:27:27;;;;;;;5.07;3.22;;;23.50;77.40;;;;;;5076097;28;20024;-72
2023/07/23 00:29:53;;;;;;;4.15;3.25;;;23.50;77.00;;;;;;5076198;28;20033;-72
2023/07/23 00:32:19;;;;;;;6.03;3.00;;;23.40;76.90;;;;;;5076338;28;20016;-72
2023/07/23 00:34:45;;;;;;;5.28;3.20;;;23.40;76.50;;;;;;5076209;28;20078;-72
2023/07/23 00:37:10;;;;;;;4.75;3.25;;;23.40;76.30;;;;;;5076020;28;20078;-72
2023/07/23 00:39:37;;;;;;;12.00;4.18;;;23.40;76.20;;;;;;5076004;28;20039;-72
2023/07/23 00:42:03;;;;;;;5.13;3.45;;;23.40;76.60;;;;;;5075786;28;20486;-72
2023/07/23 00:44:28;;;;;;;5.70;3.35;;;23.40;75.90;;;;;;5075822;28;20031;-72
2023/07/23 00:46:58;;;;;;;6.25;3.83;;;23.40;75.90;;;;;;5075663;28;20100;-72
2023/07/23 00:49:24;;;;;;;7.60;3.97;;;23.30;76.00;;;;;;5075843;28;20090;-72
2023/07/23 00:51:51;;;;;;;5.15;3.42;;;23.30;76.20;;;;;;5075846;28;20017;-72
2023/07/23 00:54:17;;;;;;;6.35;3.50;;;23.30;76.60;;;;;;5075799;28;20039;-72
2023/07/23 00:56:44;;;;;;;6.70;3.70;;;23.30;77.20;;;;;;5075545;28;20096;-72
2023/07/23 00:59:10;;;;;;;4.65;3.50;;;23.30;76.40;;;;;;5072755;28;20111;-72
2023/07/23 01:01:36;;;;;;;6.40;3.80;;;23.30;76.40;;;;;;5072667;28;20154;-72
2023/07/23 01:04:03;;;;;;;5.60;3.00;;;23.30;76.30;;;;;;5073260;28;20107;-72
2023/07/23 01:06:31;;;;;;;7.45;3.30;;;23.30;76.20;;;;;;5075197;28;20509;-72
2023/07/23 01:08:58;;;;;;;4.60;2.97;;;23.30;76.30;;;;;;5074870;28;20482;-72
2023/07/23 01:11:26;;;;;;;6.50;3.45;;;23.20;76.60;;;;;;5074937;28;20021;-72
2023/07/23 01:13:53;;;;;;;5.57;3.47;;;23.20;76.40;;;;;;5074855;28;20074;-73
2023/07/23 01:16:19;;;;;;;4.32;3.40;;;23.20;76.30;;;;;;5075090;28;20070;-72
2023/07/23 01:18:46;;;;;;;9.13;3.55;;;23.20;76.40;;;;;;5075183;28;20075;-72
2023/07/23 01:21:14;;;;;;;5.63;3.40;;;23.20;76.50;;;;;;5056898;28;20028;-72
2023/07/23 01:23:40;;;;;;;5.20;3.17;;;23.20;76.60;;;;;;5075053;28;20024;-72
2023/07/23 01:26:09;;;;;;;5.53;3.22;;;23.10;76.50;;;;;;5074881;28;20064;-72
2023/07/23 01:28:36;;;;;;;7.50;3.28;;;23.10;76.50;;;;;;5074537;28;20059;-72
2023/07/23 01:31:02;;;;;;;6.95;3.10;;;23.10;76.60;;;;;;5074806;28;20039;-72
2023/07/23 01:33:28;;;;;;;5.18;3.40;;;23.10;76.80;;;;;;5074897;28;20104;-73
2023/07/23 01:35:56;;;;;;;6.47;3.53;;;23.10;76.90;;;;;;5074656;28;20028;-72
2023/07/23 01:38:23;;;;;;;8.00;3.15;;;23.10;76.90;;;;;;5074700;28;20475;-72
2023/07/23 01:40:50;;;;;;;8.43;3.75;;;23.10;77.00;;;;;;5074632;28;20058;-72
2023/07/23 01:43:17;;;;;;;4.40;3.28;;;23.10;76.80;;;;;;5074914;28;20035;-72
2023/07/23 01:45:46;;;;;;;3.80;3.22;;;23.00;76.60;;;;;;5074798;28;20482;-72
2023/07/23 01:48:13;;;;;;;5.20;3.05;;;23.10;76.60;;;;;;5074763;28;20028;-72
2023/07/23 01:50:39;;;;;;;5.85;3.00;;;23.00;76.40;;;;;;5074631;28;20029;-72
2023/07/23 01:53:06;;;;;;;7.15;2.95;;;23.00;76.50;;;;;;5074563;28;20048;-72
2023/07/23 01:55:32;;;;;;;4.15;3.03;;;23.00;76.40;;;;;;5074469;28;20025;-72
2023/07/23 01:57:58;;;;;;;5.32;3.17;;;23.00;76.40;;;;;;5074428;28;20025;-72
2023/07/23 02:00:23;;;;;;;4.55;3.00;;;23.00;76.60;;;;;;5074672;28;20024;-72
2023/07/23 02:02:49;;;;;;;4.70;3.03;;;23.00;76.70;;;;;;5074425;28;20044;-72
2023/07/23 02:05:17;;;;;;;6.57;3.42;;;23.00;76.60;;;;;;5074407;28;20020;-72
2023/07/23 02:07:43;;;;;;;4.72;3.13;;;23.00;76.70;;;;;;5074608;28;20023;-72
2023/07/23 02:10:13;;;;;;;7.15;3.45;;;23.00;76.60;;;;;;5074139;28;20043;-72
2023/07/23 02:12:39;;;;;;;4.57;3.10;;;23.00;76.50;;;;;;5074111;28;20111;-72
2023/07/23 02:15:05;;;;;;;5.00;3.20;;;22.90;76.20;;;;;;5074034;28;20509;-72
2023/07/23 02:17:31;;;;;;;3.72;2.92;;;23.00;76.30;;;;;;5073643;28;20036;-72
2023/07/23 02:19:57;;;;;;;3.67;3.13;;;23.00;76.40;;;;;;5073310;28;20107;-73
2023/07/23 02:22:22;;;;;;;4.18;3.10;;;22.90;75.90;;;;;;5074088;28;20048;-72
2023/07/23 02:24:48;;;;;;;5.50;3.08;;;22.90;75.80;;;;;;5074081;28;20501;-72
2023/07/23 02:27:15;;;;;;;5.18;3.40;;;22.90;75.70;;;;;;5074006;28;20483;-72
2023/07/23 02:29:41;;;;;;;5.32;2.85;;;22.90;75.60;;;;;;5073866;28;20094;-72
2023/07/23 02:32:09;;;;;;;5.53;2.90;;;23.00;75.90;;;;;;5073698;28;20103;-72
2023/07/23 02:34:35;;;;;;;4.50;2.67;;;23.00;76.00;;;;;;5073680;28;20474;-72
2023/07/23 02:37:01;;;;;;;4.60;2.90;;;22.90;76.00;;;;;;5073806;28;20070;-72
2023/07/23 02:39:26;;;;;;;5.13;2.90;;;22.90;76.20;;;;;;5073743;28;20107;-72
2023/07/23 02:41:52;;;;;;;4.65;2.88;;;22.90;76.70;;;;;;5073649;28;20017;-72
2023/07/23 02:44:18;;;;;;;4.68;2.90;;;22.90;76.90;;;;;;5073470;28;20029;-72
2023/07/23 02:46:44;;;;;;;8.02;3.15;;;22.90;76.90;;;;;;5055768;28;20017;-73
2023/07/23 02:49:09;;;;;;;6.38;2.97;;;22.90;76.80;;;;;;5073467;28;20037;-72
2023/07/23 02:51:35;;;;;;;4.25;3.08;;;22.90;76.80;;;;;;5073528;28;20021;-72
2023/07/23 02:54:01;;;;;;;4.07;3.20;;;22.90;76.60;;;;;;5073258;28;20111;-73
2023/07/23 02:56:27;;;;;;;5.00;3.05;;;22.80;76.70;;;;;;5073554;28;20024;-72
2023/07/23 02:58:53;;;;;;;6.43;2.88;;;22.90;76.90;;;;;;5073408;28;20462;-72
2023/07/23 03:01:20;;;;;;;3.95;3.17;;;22.80;76.90;;;;;;5073339;28;20061;-72
2023/07/23 03:03:47;;;;;;;7.72;3.03;;;22.80;77.20;;;;;;5073403;28;20024;-72
2023/07/23 03:06:16;;;;;;;3.95;2.80;;;22.80;77.40;;;;;;5073229;28;20467;-72
2023/07/23 03:08:42;;;;;;;7.53;2.80;;;22.80;77.40;;;;;;5073327;28;20030;-72
2023/07/23 03:11:08;;;;;;;3.65;2.38;;;22.80;77.30;;;;;;5073457;28;20024;-72
2023/07/23 03:13:33;;;;;;;6.32;3.03;;;22.80;77.30;;;;;;5073072;28;20020;-72
2023/07/23 03:16:00;;;;;;;4.63;3.00;;;22.80;77.50;;;;;;5073018;28;20025;-72
2023/07/23 03:18:26;;;;;;;7.40;3.47;;;22.80;77.90;;;;;;5072828;28;20471;-72
2023/07/23 03:20:52;;;;;;;6.70;3.22;;;22.70;77.60;;;;;;5073110;28;20035;-72
2023/07/23 03:23:18;;;;;;;4.88;3.10;;;22.70;77.50;;;;;;5073139;28;20021;-72
2023/07/23 03:25:44;;;;;;;7.10;3.20;;;22.70;77.70;;;;;;5073146;28;20032;-72
2023/07/23 03:28:09;;;;;;;3.47;2.78;;;22.70;77.80;;;;;;5072992;28;20028;-72
2023/07/23 03:30:35;;;;;;;4.65;3.28;;;22.70;77.90;;;;;;5072733;28;20036;-72
2023/07/23 03:33:01;;;;;;;4.32;3.17;;;22.70;78.10;;;;;;5071961;28;20042;-72
2023/07/23 03:35:26;;;;;;;4.40;3.05;;;22.60;78.10;;;;;;5072853;28;20024;-72
2023/07/23 03:37:53;;;;;;;8.18;3.13;;;22.60;77.90;;;;;;5072993;28;20433;-72
2023/07/23 03:40:19;;;;;;;8.70;3.10;;;22.60;78.00;;;;;;5072891;28;20025;-72
2023/07/23 03:42:45;;;;;;;6.50;3.40;;;22.60;78.30;;;;;;5072756;28;20043;-71
2023/07/23 03:45:10;;;;;;;8.10;3.38;;;22.60;78.50;;;;;;5072626;28;20029;-72
2023/07/23 03:47:36;;;;;;;9.02;3.22;;;22.60;78.70;;;;;;5072673;28;20029;-72
2023/07/23 03:50:02;;;;;;;4.57;2.75;;;22.60;78.70;;;;;;5073082;28;20070;-72
2023/07/23 03:52:28;;;;;;;6.70;3.03;;;22.60;78.70;;;;;;5072808;28;20035;-72
2023/07/23 03:54:53;;;;;;;6.75;3.00;;;22.60;78.90;;;;;;5054855;28;20115;-72
2023/07/23 03:57:19;;;;;;;5.55;3.30;;;22.60;78.80;;;;;;5072841;28;20029;-72
2023/07/23 03:59:46;;;;;;;4.30;3.05;;;22.60;78.90;;;;;;5072651;28;20052;-72
2023/07/23 04:02:12;;;;;;;6.25;3.33;;;22.70;79.10;;;;;;5072737;28;20031;-72
2023/07/23 04:04:39;;;;;;;6.35;2.95;;;22.60;79.00;;;;;;5072641;28;20020;-72
2023/07/23 04:07:06;;;;;;;5.13;3.08;;;22.60;79.00;;;;;;5072836;28;20028;-72
2023/07/23 04:09:32;;;;;;;4.70;3.30;;;22.60;79.10;;;;;;5072371;28;20521;-72
2023/07/23 04:11:58;;;;;;;5.30;3.22;;;22.60;79.10;;;;;;5072444;28;20029;-72
2023/07/23 04:14:25;;;;;;;9.77;3.40;;;22.70;79.30;;;;;;5072673;28;20107;-72
2023/07/23 04:16:51;;;;;;;4.35;3.20;;;22.60;79.20;;;;;;5072596;28;20045;-72
2023/07/23 04:19:17;;;;;;;4.97;3.22;;;22.60;79.10;;;;;;5072372;28;20126;-72
2023/07/23 04:21:44;;;;;;;5.47;3.13;;;22.60;78.90;;;;;;5072497;28;20013;-73
2023/07/23 04:24:10;;;;;;;4.47;3.45;;;22.60;78.70;;;;;;5072400;28;20394;-72
2023/07/23 04:26:35;;;;;;;6.25;3.72;;;22.60;78.40;;;;;;5072400;28;20023;-72
2023/07/23 04:29:01;;;;;;;4.43;3.00;;;22.70;78.50;;;;;;5072431;28;20061;-72
2023/07/23 04:31:27;;;;;;;4.65;2.78;;;22.60;78.60;;;;;;5072412;28;20032;-73
2023/07/23 04:33:53;;;;;;;6.55;2.88;;;22.70;78.60;;;;;;5072257;28;20021;-72
2023/07/23 04:36:19;;;;;;;7.00;3.00;;;22.70;78.50;;;;;;5072281;28;20059;-71
2023/07/23 04:38:45;;;;;;;6.95;3.05;;;22.70;78.60;;;;;;5072357;28;20012;-72
2023/07/23 04:41:12;;;;;;;4.38;3.20;;;22.70;78.70;;;;;;5072300;28;20108;-72
2023/07/23 04:43:39;;;;;;;4.63;3.05;;;22.70;78.80;;;;;;5073179;28;20025;-73
2023/07/23 04:46:05;;;;;;;5.97;3.20;;;22.70;79.00;;;;;;5075868;28;20025;-73
2023/07/23 04:48:32;;;;;;;3.67;3.03;;;22.80;79.40;;;;;;5075730;28;20043;-72
2023/07/23 04:51:00;;;;;;;5.43;3.15;;;22.80;79.40;;;;;;5057599;28;20421;-72
2023/07/23 04:53:26;;;;;;;6.90;3.30;;;22.80;79.60;;;;;;5057797;28;20040;-71
2023/07/23 04:55:53;;;;;;;6.00;3.00;;;22.80;79.80;;;;;;5075670;28;20020;-72
2023/07/23 04:58:20;;;;;;;6.18;3.10;;;22.80;80.00;;;;;;5075430;28;20466;-71
2023/07/23 05:00:46;;;;;;;5.38;3.35;;;22.80;80.10;;;;;;5075624;28;20474;-71
2023/07/23 05:03:12;;;;;;;4.95;2.90;;;22.80;80.30;;;;;;5075652;28;20528;-72
2023/07/23 05:05:41;;;;;;;6.57;2.78;;;22.80;80.30;;;;;;5075365;28;20028;-73
2023/07/23 05:08:08;;;;;;;5.10;3.25;;;22.80;80.30;;;;;;5075622;28;20020;-72
2023/07/23 05:10:34;;;;;;;6.85;2.90;;;22.90;80.50;;;;;;5075237;28;20505;-73
2023/07/23 05:13:00;;;;;;;4.75;2.95;;;22.90;80.70;;;;;;5075326;28;20029;-73
2023/07/23 05:15:26;;;;;;;4.38;3.00;;;22.90;81.10;;;;;;5075169;28;20100;-73
2023/07/23 05:17:52;;;;;;;4.85;3.00;;;22.90;80.90;;;;;;5074948;28;20044;-73
2023/07/23 05:20:18;;;;;;;5.00;3.15;;;22.90;80.30;;;;;;5075234;28;20504;-73
2023/07/23 05:22:43;;;;;;;7.00;3.15;;;22.90;80.20;;;;;;5075271;28;20020;-73
2023/07/23 05:25:09;;;;;;;4.55;2.92;;;22.90;80.50;;;;;;5075173;28;20032;-73
2023/07/23 05:27:35;;;;;;;4.05;3.20;;;23.00;80.50;;;;;;5075056;28;20495;-72
2023/07/23 05:30:01;;;;;;;7.30;3.30;;;23.00;80.50;;;;;;5074852;28;20036;-72
2023/07/23 05:32:27;;;;;;;6.25;3.20;;;23.00;80.50;;;;;;5056890;28;20029;-73
2023/07/23 05:34:53;;;;;;;8.75;3.20;;;23.00;80.40;;;;;;5074685;28;20078;-73
2023/07/23 05:37:20;;;;;;;5.63;3.30;;;23.00;80.30;;;;;;5074839;28;20023;-72
2023/07/23 05:39:47;;;;;;;4.43;3.10;;;23.10;80.40;;;;;;5075366;28;20031;-73
2023/07/23 05:42:13;;;;;;;7.63;3.20;;;23.10;80.50;;;;;;5074568;28;20057;-73
2023/07/23 05:44:39;;;;;;;6.95;3.33;;;23.10;80.70;;;;;;5074838;28;20486;-72
2023/07/23 05:47:05;;;;;;;6.10;3.05;;;23.10;81.40;;;;;;5074787;28;20020;-73
2023/07/23 05:49:31;;;;;;;7.63;3.75;;;23.10;81.00;;;;;;5074679;28;20111;-73
2023/07/23 05:52:00;;;;;;;6.72;3.60;;;23.10;81.10;;;;;;5074534;28;20117;-73
2023/07/23 05:54:26;;;;;;;6.40;3.88;;;23.20;81.20;;;;;;5074188;28;20517;-73
2023/07/23 05:56:52;;;;;;;10.15;3.30;;;23.20;81.10;;;;;;5073779;28;20162;-73
2023/07/23 05:59:18;;;;;;;5.15;3.55;;;23.20;81.00;;;;;;5074451;28;20028;-72
2023/07/23 06:01:44;;;;;;;4.82;2.97;;;23.20;80.90;;;;;;5056563;28;20024;-73
2023/07/23 06:04:10;;;;;;;6.20;3.38;;;23.30;81.20;;;;;;5074121;28;20039;-73
2023/07/23 06:06:36;;;;;;;4.75;3.53;;;23.30;81.00;;;;;;5074410;28;20111;-73
2023/07/23 06:09:03;;;;;;;7.00;3.00;;;23.30;80.50;;;;;;5074160;28;20028;-74
2023/07/23 06:11:29;;;;;;;7.13;3.20;;;23.30;80.30;;;;;;5074152;28;20020;-73
2023/07/23 06:13:55;;;;;;;5.80;3.20;;;23.30;80.20;;;;;;5073920;28;20112;-72
2023/07/23 06:16:21;;;;;;;4.95;3.15;;;23.40;81.10;;;;;;5073629;28;20063;-73
2023/07/23 06:18:47;;;;;;;6.57;3.50;;;23.50;80.80;;;;;;5074001;28;20028;-73
2023/07/23 06:21:12;;;;;;;4.45;3.40;;;23.50;81.10;;;;;;5056122;28;20031;-72
2023/07/23 06:23:38;;;;;;;7.25;3.72;;;23.50;81.10;;;;;;5073877;28;20025;-72
2023/07/23 06:26:04;;;;;;;5.88;3.63;;;23.50;80.70;;;;;;5073914;28;20025;-72
2023/07/23 06:28:31;;;;;;;6.75;3.80;;;23.60;80.60;;;;;;5073722;28;20510;-72
2023/07/23 06:30:56;;;;;;;5.10;3.42;;;23.60;80.60;;;;;;5073899;28;20062;-72
2023/07/23 06:33:22;;;;;;;4.43;3.33;;;23.60;80.40;;;;;;5056071;28;20055;-72
2023/07/23 06:35:48;;;;;;;7.75;3.72;;;23.70;80.50;;;;;;5073867;28;20505;-72
2023/07/23 06:38:15;;;;;;;4.95;3.38;;;23.70;80.30;;;;;;5073597;28;20305;-72
2023/07/23 06:40:47;;;;;;;7.97;4.15;;;23.70;80.20;;;;;;5073289;28;20033;-72
2023/07/23 06:43:14;;;;;;;8.18;3.65;;;23.80;80.50;;;;;;5073587;28;20099;-72
2023/07/23 06:45:40;;;;;;;12.35;4.22;;;23.80;80.70;;;;;;5073735;28;20036;-72
2023/07/23 06:48:06;;;;;;;7.88;3.55;;;23.80;80.60;;;;;;5073653;28;20025;-72
2023/07/23 06:50:32;;;;;;;6.57;3.70;;;23.90;80.40;;;;;;5073499;28;20086;-71
2023/07/23 06:52:58;;;;;;;11.00;4.32;;;23.90;80.50;;;;;;5073314;28;20052;-72
2023/07/23 06:55:24;;;;;;;7.38;3.25;;;23.90;80.50;;;;;;5073537;28;20029;-72
2023/07/23 06:57:49;;;;;;;7.28;3.67;;;23.90;80.60;;;;;;5073552;28;20030;-72
2023/07/23 07:00:15;;;;;;;6.43;3.97;;;24.00;80.50;;;;;;5073281;28;20028;-71
2023/07/23 07:02:42;;;;;;;7.88;4.22;;;24.00;80.60;;;;;;5073162;28;20039;-71
2023/07/23 07:05:08;;;;;;;7.38;3.75;;;24.00;80.40;;;;;;5073090;28;20483;-71
2023/07/23 07:07:35;;;;;;;7.32;3.80;;;24.10;80.60;;;;;;5072900;28;20375;-72
2023/07/23 07:10:02;;;;;;;8.35;3.70;;;24.10;80.80;;;;;;5073224;28;20466;-71
2023/07/23 07:12:28;;;;;;;5.53;3.08;;;24.10;80.70;;;;;;5073127;28;20047;-72
2023/07/23 07:14:54;;;;;;;5.00;3.40;;;24.20;80.60;;;;;;5055206;28;20070;-72
2023/07/23 07:17:20;;;;;;;7.90;4.22;;;24.20;80.60;;;;;;5072802;28;20052;-72
2023/07/23 07:19:46;;;;;;;6.28;3.58;;;24.20;80.70;;;;;;5072978;28;20077;-72
2023/07/23 07:22:12;;;;;;;4.97;3.80;;;24.30;80.70;;;;;;5073123;28;20141;-71
2023/07/23 07:24:38;;;;;;;5.43;3.42;;;24.30;80.60;;;;;;5072775;28;20060;-71
2023/07/23 07:27:09;;;;;;;9.43;3.97;;;24.30;80.70;;;;;;5073074;28;20020;-71
2023/07/23 07:29:38;;;;;;;5.13;3.55;;;24.30;81.00;;;;;;5073001;28;20375;-71
2023/07/23 07:32:05;;;;;;;7.72;3.42;;;24.40;81.30;;;;;;5073050;28;20062;-72
2023/07/23 07:34:31;;;;;;;4.80;3.33;;;24.50;81.70;;;;;;5072738;28;20494;-71
2023/07/23 07:36:57;;;;;;;8.93;3.60;;;24.50;81.80;;;;;;5073174;28;20035;-71
2023/07/23 07:39:23;;;;;;;5.28;3.35;;;24.50;81.50;;;;;;5072877;28;20021;-71
2023/07/23 07:41:48;;;;;;;5.28;3.33;;;24.50;81.70;;;;;;5055008;28;20086;-71
2023/07/23 07:44:14;;;;;;;7.50;3.10;;;24.60;81.90;;;;;;5072717;28;20025;-71
2023/07/23 07:46:40;;;;;;;6.40;3.22;;;24.60;82.00;;;;;;5072850;28;20020;-72
2023/07/23 07:49:05;;;;;;;5.50;3.40;;;24.70;82.20;;;;;;5072516;28;20028;-72
2023/07/23 07:51:31;;;;;;;6.20;3.55;;;24.70;82.40;;;;;;5072831;28;20029;-72
2023/07/23 07:53:57;;;;;;;7.70;3.25;;;24.80;82.60;;;;;;5073060;28;20056;-72
2023/07/23 07:56:23;;;;;;;6.22;3.58;;;24.80;82.00;;;;;;5072783;28;20078;-72
2023/07/23 07:58:49;;;;;;;5.10;3.90;;;24.90;82.30;;;;;;5072637;28;20475;-72
2023/07/23 08:01:15;;;;;;;6.15;4.03;;;24.90;81.50;;;;;;5072751;28;20024;-72
2023/07/23 08:03:42;;;;;;;8.57;3.65;;;24.90;81.70;;;;;;5072709;28;20032;-72
2023/07/23 08:06:09;;;;;;;7.05;4.00;;;25.00;81.90;;;;;;5072752;28;20016;-72
2023/07/23 08:08:37;;;;;;;7.90;4.47;;;25.00;82.20;;;;;;5072645;28;20054;-72
2023/07/23 08:11:06;;;;;;;6.07;3.70;;;25.10;82.60;;;;;;5072867;28;20108;-72
2023/07/23 08:13:34;;;;;;;5.90;3.83;;;25.10;82.80;;;;;;5072554;28;20439;-72
2023/07/23 08:16:01;;;;;;;8.15;3.90;;;25.20;82.60;;;;;;5072486;28;20478;-72
2023/07/23 08:18:27;;;;;;;6.18;3.75;;;25.30;81.80;;;;;;5073413;28;20483;-72
2023/07/23 08:20:57;;;;;;;7.20;4.22;;;25.30;81.90;;;;;;5076336;28;20510;-72
2023/07/23 08:23:25;;;;;;;9.23;3.90;;;25.40;81.60;;;;;;5076389;28;20055;-72
2023/07/23 08:25:55;;;;;;;8.45;3.80;;;25.40;81.30;;;;;;5076336;28;20031;-72
2023/07/23 08:28:23;;;;;;;7.07;3.90;;;25.50;81.10;;;;;;5076255;28;20072;-72
2023/07/23 08:30:50;;;;;;;8.98;5.13;;;25.50;81.90;;;;;;5076037;28;20071;-72
2023/07/23 08:33:17;;;;;;;4.97;3.80;;;25.60;82.10;;;;;;5076150;28;20562;-72
2023/07/23 08:35:43;;;;;;;6.13;4.28;;;25.60;81.60;;;;;;5076058;28;20029;-72
2023/07/23 08:38:10;;;;;;;7.43;4.40;;;25.70;81.00;;;;;;5075966;28;20021;-72
2023/07/23 08:40:44;;;;;;;6.63;4.70;;;25.70;80.80;;;;;;5075987;28;20471;-72
2023/07/23 08:43:26;;;;;;;7.53;4.40;;;25.80;80.50;;;;;;5076029;28;20420;-72
2023/07/23 08:46:04;;;;;;;;;;;25.90;81.00;;;;;;5076395;28;20025;-72
2023/07/23 08:49:01;;;;;;;7.00;4.40;;;25.90;80.20;;;;;;5075853;28;19904;-72
2023/07/23 08:51:32;;;;;;;6.40;4.07;;;25.90;79.60;;;;;;5057713;28;20036;-72
2023/07/23 08:53:58;;;;;;;8.77;4.50;;;26.00;79.50;;;;;;5075728;28;20100;-72
2023/07/23 08:56:24;;;;;;;6.53;4.32;;;26.10;80.20;;;;;;5075714;28;20027;-72
2023/07/23 08:58:50;;;;;;;6.82;4.30;;;26.20;79.80;;;;;;5075630;28;20107;-72
2023/07/23 09:01:16;;;;;;;7.07;4.05;;;26.20;78.80;;;;;;5075679;28;20024;-72
2023/07/23 09:03:43;;;;;;;7.90;4.18;;;26.20;78.40;;;;;;5075711;28;20029;-72
2023/07/23 09:06:10;;;;;;;5.88;4.30;;;26.30;78.90;;;;;;5075454;28;20016;-72
2023/07/23 09:08:36;;;;;;;9.85;4.80;;;26.30;78.80;;;;;;5075343;28;20525;-72
2023/07/23 09:11:04;;;;;;;7.43;4.22;;;26.40;78.40;;;;;;5075595;28;20103;-72
2023/07/23 09:13:34;;;;;;;7.57;4.82;;;26.50;79.10;;;;;;5075501;28;20098;-73
2023/07/23 09:18:40;;;;;;;9.25;4.53;;;26.60;78.60;;;;;;5053112;28;20045;-71
2023/07/23 09:21:07;;;;;;;5.38;3.92;;;26.70;78.60;;;;;;5053878;28;20481;-71
2023/07/23 09:23:36;;;;;;;8.07;4.15;;;26.70;78.50;;;;;;5037465;28;20029;-71
2023/07/23 09:26:08;;;;;;;8.15;4.38;;;26.80;78.70;;;;;;5055023;28;20136;-71
2023/07/23 09:28:34;;;;;;;;;;;26.90;79.20;;;;;;5037399;28;20025;-70
2023/07/23 09:31:00;;;;;;;9.32;4.93;;;26.90;77.00;;;;;;5052077;28;19916;-72
2023/07/23 09:33:36;;;;;;;7.35;4.50;;;26.90;77.70;;;;;;5054657;28;20032;-71
2023/07/23 09:36:05;;;;;;;10.57;5.05;;;27.00;77.70;;;;;;5054903;28;20021;-72
2023/07/23 09:38:32;;;;;;;8.20;4.47;;;27.00;77.50;;;;;;5054724;28;20029;-72
2023/07/23 09:40:59;;;;;;;7.38;4.88;;;27.10;77.30;;;;;;5054650;28;20509;-72
2023/07/23 09:43:26;;;;;;;9.55;4.88;;;27.10;77.40;;;;;;5054778;28;20394;-71
2023/07/23 09:45:53;;;;;;;7.43;4.35;;;27.20;77.10;;;;;;5054694;28;20021;-71
2023/07/23 09:48:20;;;;;;;7.68;5.13;;;27.20;76.70;;;;;;5054650;28;20036;-72
2023/07/23 09:50:49;;;;;;;6.75;4.05;;;27.30;76.70;;;;;;5054507;28;20044;-71
2023/07/23 09:53:15;;;;;;;8.65;4.50;;;27.30;76.80;;;;;;5054385;28;20383;-72
2023/07/23 09:55:42;;;;;;;8.68;4.70;;;27.40;77.00;;;;;;5054534;28;20028;-71
2023/07/23 09:58:09;;;;;;;9.50;4.00;;;27.40;76.60;;;;;;5054249;28;20379;-72
2023/07/23 10:00:36;;;;;;;8.85;4.60;;;27.50;75.30;;;;;;5054077;28;20040;-72
2023/07/23 10:03:03;;;;;;;7.30;4.80;;;27.50;76.50;;;;;;5054273;28;20022;-71
2023/07/23 10:05:29;;;;;;;8.68;5.03;;;27.50;75.70;;;;;;5053943;28;20471;-72
2023/07/23 10:08:08;;;;;;;7.82;4.93;;;27.50;76.40;;;;;;5054056;28;20025;-70
2023/07/23 10:10:40;;;;;;;7.13;4.35;;;27.50;76.30;;;;;;5054219;28;20048;-71
2023/07/23 10:13:06;;;;;;;11.18;4.80;;;27.50;76.30;;;;;;5054131;28;20104;-71
2023/07/23 10:15:36;;;;;;;12.40;5.18;;;27.50;75.90;;;;;;5036059;28;20068;-71
2023/07/23 10:18:06;;;;;;;7.13;4.93;;;27.50;75.80;;;;;;5053874;28;20375;-71
2023/07/23 10:20:33;;;;;;;11.23;4.90;;;27.60;74.10;;;;;;5054125;28;20056;-72
2023/07/23 10:23:06;;;;;;;11.10;4.68;;;27.60;73.60;;;;;;5053848;28;20510;-71
2023/07/23 10:25:43;;;;;;;10.07;5.07;;;27.50;73.60;;;;;;5054111;28;20475;-71
2023/07/23 10:28:20;;;;;;;7.22;4.32;;;27.50;75.20;;;;;;5054140;28;20036;-72
2023/07/23 10:30:46;;;;;;;9.18;4.72;;;27.50;75.60;;;;;;5053937;28;20421;-71
2023/07/23 10:33:49;;;;;;;11.88;5.57;;;27.60;76.60;;;;;;5035884;28;20043;-70
2023/07/23 10:36:22;;;;;;;8.55;4.90;;;27.60;76.30;;;;;;5036011;28;20083;-70
2023/07/23 10:39:14;;;;;;;8.27;4.80;;;27.70;75.60;;;;;;5035854;28;20036;-71
2023/07/23 10:41:53;;;;;;;;;;;27.70;75.10;;;;;;5047715;28;20037;-71
2023/07/23 10:44:30;;;;;;;11.65;4.78;;;27.70;75.60;;;;;;5053771;28;19904;-72
2023/07/23 10:47:34;;;;;;;13.07;5.25;;;27.70;76.60;;;;;;5052071;28;20021;-71
2023/07/23 10:50:13;;;;;;;10.77;5.40;;;27.70;77.30;;;;;;5053718;28;20033;-72
2023/07/23 10:52:38;;;;;;;14.85;5.57;;;27.80;76.50;;;;;;5053455;28;20456;-72
2023/07/23 10:55:08;;;;;;;11.75;5.50;;;27.80;76.80;;;;;;5053297;28;20028;-72
2023/07/23 10:57:39;;;;;;;10.05;5.30;;;27.80;76.00;;;;;;5052411;28;20028;-72
2023/07/23 11:00:21;;;;;;;10.57;5.43;;;27.90;76.40;;;;;;5049288;28;20051;-72
2023/07/23 11:02:48;;;;;;;16.77;5.43;;;28.00;76.70;;;;;;5051004;28;20017;-72
2023/07/23 11:05:15;;;;;;;11.70;5.35;;;28.10;75.60;;;;;;5053400;28;20102;-72
2023/07/23 11:07:41;;;;;;;9.18;4.75;;;28.10;74.80;;;;;;5053152;28;20013;-72
2023/07/23 11:10:20;;;;;;;11.43;5.35;;;28.20;75.50;;;;;;5053128;28;20085;-72
2023/07/23 11:12:46;;;;;;;14.30;5.85;;;28.30;76.20;;;;;;5053321;28;20139;-72
2023/07/23 11:15:14;;;;;;;11.63;4.75;;;28.40;76.00;;;;;;5052941;28;20429;-73
2023/07/23 11:17:40;;;;;;;11.15;5.03;;;28.40;75.10;;;;;;5052803;28;20578;-72
2023/07/23 11:20:07;;;;;;;11.18;4.93;;;28.50;75.60;;;;;;5053236;28;20025;-72
2023/07/23 11:22:32;;;;;;;10.57;4.75;;;28.50;75.50;;;;;;5052162;28;20382;-73
2023/07/23 11:24:58;;;;;;;11.07;4.63;;;28.60;76.00;;;;;;5050343;28;20036;-72
2023/07/23 11:27:24;;;;;;;11.18;5.10;;;28.60;75.40;;;;;;5050287;28;20040;-72
2023/07/23 11:29:50;;;;;;;10.43;4.97;;;28.60;74.20;;;;;;5052220;28;20129;-72
2023/07/23 11:32:15;;;;;;;10.95;4.95;;;28.60;74.40;;;;;;5052737;28;20074;-72
2023/07/23 11:34:41;;;;;;;11.05;4.75;;;28.60;74.00;;;;;;5052815;28;20040;-73
2023/07/23 11:37:10;;;;;;;11.45;5.13;;;28.60;74.40;;;;;;5052518;28;20043;-72
2023/07/23 11:39:35;;;;;;;11.15;4.90;;;28.70;74.40;;;;;;5053212;28;20373;-72
2023/07/23 11:42:01;;;;;;;12.82;5.15;;;28.70;74.40;;;;;;5052778;28;20100;-72
2023/07/23 11:44:27;;;;;;;11.45;4.93;;;28.70;74.00;;;;;;5052509;28;20025;-72
2023/07/23 11:47:03;;;;;;;16.63;5.88;;;28.70;73.60;;;;;;5052755;28;20467;-73
2023/07/23 11:49:29;;;;;;;11.10;5.55;;;28.70;74.60;;;;;;5052573;28;20120;-72
2023/07/23 11:51:57;;;;;;;11.15;5.25;;;28.70;75.20;;;;;;5052681;28;20047;-71
2023/07/23 11:54:23;;;;;;;10.63;5.45;;;28.70;74.40;;;;;;5055420;28;20366;-72
2023/07/23 11:56:48;;;;;;;12.77;6.03;;;28.80;74.00;;;;;;5056649;28;20021;-72
2023/07/23 11:59:16;;;;;;;13.38;5.70;;;28.70;73.90;;;;;;5056865;28;20036;-72
2023/07/23 12:01:42;;;;;;;12.63;5.45;;;28.70;74.30;;;;;;5056603;28;20036;-72
2023/07/23 12:04:09;;;;;;;10.60;5.95;;;28.70;74.50;;;;;;5056799;28;20031;-72
2023/07/23 12:06:37;;;;;;;10.10;5.43;;;28.60;75.10;;;;;;5056531;28;20029;-72
2023/07/23 12:09:11;;;;;;;13.73;5.38;;;28.60;75.50;;;;;;5056518;28;20025;-72
2023/07/23 12:11:38;;;;;;;10.27;5.25;;;28.60;75.30;;;;;;5056521;28;20036;-72
2023/07/23 12:14:06;;;;;;;8.75;4.85;;;28.70;75.90;;;;;;5056532;28;20094;-73
2023/07/23 12:16:35;;;;;;;10.68;5.25;;;28.80;75.50;;;;;;5056297;28;20063;-73
2023/07/23 12:19:03;;;;;;;9.88;4.65;;;28.80;73.40;;;;;;5056385;28;20033;-72
2023/07/23 12:21:29;;;;;;;11.07;5.28;;;28.80;73.50;;;;;;5056267;28;20151;-72
2023/07/23 12:23:54;;;;;;;11.88;5.13;;;28.70;73.40;;;;;;5056141;28;20107;-72
2023/07/23 12:26:20;;;;;;;10.68;5.03;;;28.70;73.90;;;;;;5056022;28;20379;-73
2023/07/23 12:28:46;;;;;;;13.88;5.15;;;28.70;73.90;;;;;;5056121;28;20032;-72
2023/07/23 12:31:12;;;;;;;11.95;5.43;;;28.70;74.00;;;;;;5056369;28;20130;-72
2023/07/23 12:33:37;;;;;;;10.98;5.13;;;28.70;75.00;;;;;;5056134;28;20152;-72
2023/07/23 12:36:04;;;;;;;10.73;4.95;;;28.80;72.50;;;;;;5055915;28;20060;-72
2023/07/23 12:38:29;;;;;;;11.07;4.72;;;28.90;72.00;;;;;;5055852;28;20086;-72
2023/07/23 12:40:55;;;;;;;15.02;5.68;;;29.00;73.10;;;;;;5055955;28;20029;-72
2023/07/23 12:43:21;;;;;;;11.65;5.20;;;29.00;73.20;;;;;;5055919;28;20459;-72
2023/07/23 12:45:46;;;;;;;15.25;5.03;;;29.10;74.10;;;;;;5055872;28;20096;-72
2023/07/23 12:48:12;;;;;;;12.85;5.30;;;29.20;74.50;;;;;;5055771;28;20108;-72